Celtic Voyager — EIQN — position and weather

sailwx.info

Track history (hours):
 
Tides and Currents Weather Stations Pressure Air Temp Water Temp Dewpoint Dewpoint Depression Visibility Wind Speed Wind Dir Waves Ship Positions

Oceanographic research ship Celtic Voyager (Ireland)

Detailed information on ship capabilities available from University of Delaware's Ocean Information Center.

Last reported at 2019-Jun-19 13:30 UTC. Time now 2019-Jun-19 20:50 UTC.
Position N 51°34' W 010°19'.

Length 31 m; beam 8 m.

Type: Ship. MMSI: 250089000.

Date/timePositionNaut miles runAvg speedWind from/ knotsBaromVisibWave heightAir tempDewpointWater temp
2019-Jun-19 13:30N 51°34' W 010°19'510.0
2019-Jun-19 12:59N 51°31' W 010°12'5 9.7
2019-Jun-19 12:30N 51°28' W 010°06'5 9.6
2019-Jun-19 11:59N 51°25' W 009°60'5 9.4
2019-Jun-19 11:29N 51°22' W 009°54'4 9.3
2019-Jun-19 11:00N 51°20' W 009°48'5 9.3
2019-Jun-19 10:30N 51°17' W 009°42'5 9.1
2019-Jun-19 09:58N 51°15' W 009°35'4 9.2
2019-Jun-19 09:30N 51°13' W 009°28'5 9.4
2019-Jun-19 09:00N 51°12' W 009°21'5 9.0
2019-Jun-19 08:25N 51°11' W 009°13'4 9.0
2019-Jun-19 07:59N 51°10' W 009°07'27 5.2
2019-Jun-19 02:42N 51°03' W 008°25'8 1.3
2019-Jun-18 20:35N 51°08' W 008°16'10 4.3
2019-Jun-18 18:18N 51°08' W 007°60'4 9.4
2019-Jun-18 17:54N 51°04' W 007°58'12 9.4
2019-Jun-18 16:37N 50°53' W 007°54'  
2019-Jun-13 01:38N 51°48' W 007°28'0 1.0
2019-Jun-13 01:30N 51°48' W 007°28'8 6.9
2019-Jun-13 00:23N 51°42' W 007°37'4 9.0
2019-Jun-12 23:56N 51°39' W 007°41'0 0.5
2019-Jun-12 23:30N 51°39' W 007°42'2 4.9
2019-Jun-12 23:00N 51°41' W 007°44'3 5.9
2019-Jun-12 22:30N 51°42' W 007°48'2 4.9
2019-Jun-12 22:00N 51°43' W 007°52'3 5.2
2019-Jun-12 21:30N 51°44' W 007°56'4 7.8
2019-Jun-12 21:00N 51°44' W 008°02'1 2.2
2019-Jun-12 20:30N 51°44' W 008°04'3 6.9
2019-Jun-12 20:00N 51°42' W 008°07'2 4.5
2019-Jun-12 19:30N 51°40' W 008°10'1 2.3
2019-Jun-12 19:00N 51°39' W 008°11'2 3.2
2019-Jun-12 18:30N 51°37' W 008°12'1 2.6
2019-Jun-12 18:00N 51°37' W 008°10'4 7.1
2019-Jun-12 17:30N 51°35' W 008°05'1 2.4
2019-Jun-12 17:00N 51°35' W 008°03'2 3.8
2019-Jun-12 16:30N 51°35' W 007°60'2 3.2
2019-Jun-12 16:00N 51°34' W 007°58'1 1.9
2019-Jun-12 15:28N 51°33' W 007°59'3 6.0
2019-Jun-12 15:00N 51°33' W 008°03'3 6.1
2019-Jun-12 14:30N 51°32' W 008°08'3 6.2
2019-Jun-12 14:00N 51°31' W 008°13'1 2.4
2019-Jun-12 13:30N 51°31' W 008°14'4 7.5
2019-Jun-12 13:00N 51°31' W 008°20'4 8.4
2019-Jun-12 12:30N 51°32' W 008°27'5 8.8
2019-Jun-12 11:58N 51°33' W 008°34'2 4.8
2019-Jun-12 11:30N 51°33' W 008°38'3 6.4
2019-Jun-12 10:59N 51°31' W 008°42'28 4.1
2019-Jun-12 04:06N 51°23' W 009°25'0 0.8
2019-Jun-12 03:59N 51°23' W 009°25'2 2.6
2019-Jun-12 03:14N 51°25' W 009°24'2 7.2
2019-Jun-12 03:00N 51°25' W 009°27'4 8.2
2019-Jun-12 02:31N 51°25' W 009°33'9 9.0
2019-Jun-12 01:30N 51°26' W 009°48'4 8.6
2019-Jun-12 01:00N 51°28' W 009°54'5 9.1
2019-Jun-12 00:30N 51°32' W 009°53'5 9.6
2019-Jun-11 23:57N 51°36' W 009°47'4 9.7
2019-Jun-11 23:31N 51°39' W 009°42'1 2.4
2019-Jun-11 23:00N 51°38' W 009°43'3 6.2
2019-Jun-11 22:30N 51°36' W 009°47'1 2.3
2019-Jun-11 22:00N 51°36' W 009°49'4 7.6
2019-Jun-11 21:30N 51°33' W 009°52'3 5.3
2019-Jun-11 21:00N 51°31' W 009°48'2 4.3
2019-Jun-11 20:30N 51°32' W 009°45'1 1.2
2019-Jun-11 20:00N 51°33' W 009°44'4 7.3
2019-Jun-11 19:30N 51°31' W 009°50'3 6.2
2019-Jun-11 19:00N 51°33' W 009°53'2 4.6
2019-Jun-11 18:30N 51°33' W 009°57'3 5.7
2019-Jun-11 17:58N 51°32' W 010°02'2 4.2
2019-Jun-11 17:28N 51°33' W 010°05'4 8.8
2019-Jun-11 17:00N 51°34' W 010°12'8 7.0
2019-Jun-11 15:54N 51°41' W 010°09'1 2.5
2019-Jun-11 15:26N 51°42' W 010°08'1 2.5
2019-Jun-11 14:55N 51°42' W 010°10'2 5.0
2019-Jun-11 14:26N 51°42' W 010°13'8 8.5
2019-Jun-11 13:26N 51°48' W 010°24'82 8.9
2019-Jun-11 04:15N 53°09' W 010°20'5 9.6
2019-Jun-11 03:45N 53°14' W 010°20'3 9.5
2019-Jun-11 03:28N 53°17' W 010°19'3 7.3
2019-Jun-11 03:00N 53°20' W 010°19'2 3.2
2019-Jun-11 02:30N 53°19' W 010°18'1 1.4
2019-Jun-11 01:57N 53°18' W 010°17'1 1.8
2019-Jun-11 01:25N 53°17' W 010°16'2 4.9
2019-Jun-11 01:00N 53°18' W 010°13'1 1.7
2019-Jun-11 00:27N 53°17' W 010°13'1 2.8
2019-Jun-11 00:00N 53°16' W 010°12'5 7.9
2019-Jun-10 23:25N 53°12' W 010°08'4 7.6
2019-Jun-10 22:57N 53°09' W 010°04'1 2.0
2019-Jun-10 22:18N 53°08' W 010°03'3 5.3
2019-Jun-10 21:41N 53°08' W 010°09'0 0.9
2019-Jun-10 21:28N 53°08' W 010°08'3 5.1
2019-Jun-10 20:50N 53°06' W 010°11'2 2.6
2019-Jun-10 20:12N 53°05' W 010°08'2 5.3
2019-Jun-10 19:51N 53°05' W 010°05'6 4.0
2019-Jun-10 18:26N 53°06' W 009°56'2 3.2
2019-Jun-10 17:55N 53°05' W 009°53'3 2.0
2019-Jun-10 16:27N 53°03' W 009°55'2 2.7
2019-Jun-10 15:43N 53°02' W 009°58'6 4.3
2019-Jun-10 14:21N 53°02' W 010°08'3 6.9
2019-Jun-10 13:51N 53°02' W 010°14'9 2.8
2019-Jun-10 10:43N 52°59' W 009°60'10 0.6
2019-Jun-09 19:07N 53°03' W 009°44'  
2019-Jun-07 04:34N 53°13' W 009°08'7 5.9
2019-Jun-07 03:24N 53°09' W 009°18'3 6.4
2019-Jun-07 02:59N 53°07' W 009°21'3 5.6
2019-Jun-07 02:26N 53°05' W 009°24'5 9.4
2019-Jun-07 01:57N 53°01' W 009°28'4 9.3
2019-Jun-07 01:30N 52°58' W 009°32'5 9.5
2019-Jun-07 01:00N 52°54' W 009°37'5 9.3
2019-Jun-07 00:29N 52°50' W 009°42'79 8.4
2019-Jun-06 15:04N 51°34' W 010°18'2 9.8
2019-Jun-06 14:53N 51°33' W 010°15'5 9.6
2019-Jun-06 14:23N 51°30' W 010°09'4 9.5
2019-Jun-06 14:00N 51°28' W 010°04'5 9.5
2019-Jun-06 13:30N 51°26' W 009°58'5 9.8
2019-Jun-06 12:58N 51°22' W 009°52'5 9.9
2019-Jun-06 12:29N 51°19' W 009°45'5 9.9
2019-Jun-06 12:00N 51°17' W 009°39'5 9.7
2019-Jun-06 11:30N 51°14' W 009°32'  
2019-Jun-03 16:56N 51°19' W 008°06'4 8.3
2019-Jun-03 16:30N 51°23' W 008°07'4 7.2
2019-Jun-03 16:00N 51°26' W 008°09'4 7.2
2019-Jun-03 15:30N 51°30' W 008°10'4 7.5
2019-Jun-03 15:00N 51°33' W 008°11'4 7.3
2019-Jun-03 14:30N 51°37' W 008°12'4 7.1
2019-Jun-03 14:00N 51°40' W 008°13'4 7.0
2019-Jun-03 13:30N 51°44' W 008°15'3 6.9
2019-Jun-03 13:00N 51°47' W 008°16'3 6.6
2019-Jun-03 12:30N 51°50' W 008°16'3 5.4
2019-Jun-03 12:00N 51°52' W 008°20'3 6.7
2019-Jun-03 11:30N 51°54' W 008°24'2 4.8
2019-Jun-03 11:00N 51°54' W 008°28'0 0.3
2019-Jun-03 10:28N 51°54' W 008°28'0 0.0
2019-Jun-03 09:58N 51°54' W 008°28'0 0.0
2019-Jun-03 09:28N 51°54' W 008°28'0 0.0
2019-Jun-03 08:58N 51°54' W 008°28'0 0.0
2019-Jun-03 08:28N 51°54' W 008°28'0 0.0
2019-Jun-03 07:58N 51°54' W 008°28'0 0.0
2019-Jun-03 07:25N 51°54' W 008°28'0 0.0
2019-Jun-03 03:13N 51°54' W 008°28'0 0.0
2019-Jun-03 02:31N 51°54' W 008°28'0 0.0
2019-Jun-03 02:25N 51°54' W 008°28'0 0.0
2019-Jun-03 01:58N 51°54' W 008°28'  
Track history (hours):
 
Tides and Currents Weather Stations Pressure Air Temp Water Temp Dewpoint Dewpoint Depression Visibility Wind Speed Wind Dir Waves Ship Positions

Oceanographic research ship Celtic Voyager (Ireland)

Detailed information on ship capabilities available from University of Delaware's Ocean Information Center.

Last reported at 2019-Jun-19 13:30 UTC. Time now 2019-Jun-19 20:50 UTC.
Position N 51°34' W 010°19'.

Length 31 m; beam 8 m.

Type: Ship. MMSI: 250089000.

Date/timePositionNaut miles runAvg speedWind from/ knotsBaromVisibWave heightAir tempDewpointWater temp
2019-Jun-19 13:30N 51°34' W 010°19'510.0
2019-Jun-19 12:59N 51°31' W 010°12'5 9.7
2019-Jun-19 12:30N 51°28' W 010°06'5 9.6
2019-Jun-19 11:59N 51°25' W 009°60'5 9.4
2019-Jun-19 11:29N 51°22' W 009°54'4 9.3
2019-Jun-19 11:00N 51°20' W 009°48'5 9.3
2019-Jun-19 10:30N 51°17' W 009°42'5 9.1
2019-Jun-19 09:58N 51°15' W 009°35'4 9.2
2019-Jun-19 09:30N 51°13' W 009°28'5 9.4
2019-Jun-19 09:00N 51°12' W 009°21'5 9.0
2019-Jun-19 08:25N 51°11' W 009°13'4 9.0
2019-Jun-19 07:59N 51°10' W 009°07'27 5.2
2019-Jun-19 02:42N 51°03' W 008°25'8 1.3
2019-Jun-18 20:35N 51°08' W 008°16'10 4.3
2019-Jun-18 18:18N 51°08' W 007°60'4 9.4
2019-Jun-18 17:54N 51°04' W 007°58'12 9.4
2019-Jun-18 16:37N 50°53' W 007°54'  
2019-Jun-13 01:38N 51°48' W 007°28'0 1.0
2019-Jun-13 01:30N 51°48' W 007°28'8 6.9
2019-Jun-13 00:23N 51°42' W 007°37'4 9.0
2019-Jun-12 23:56N 51°39' W 007°41'0 0.5
2019-Jun-12 23:30N 51°39' W 007°42'2 4.9
2019-Jun-12 23:00N 51°41' W 007°44'3 5.9
2019-Jun-12 22:30N 51°42' W 007°48'2 4.9
2019-Jun-12 22:00N 51°43' W 007°52'3 5.2
2019-Jun-12 21:30N 51°44' W 007°56'4 7.8
2019-Jun-12 21:00N 51°44' W 008°02'1 2.2
2019-Jun-12 20:30N 51°44' W 008°04'3 6.9
2019-Jun-12 20:00N 51°42' W 008°07'2 4.5
2019-Jun-12 19:30N 51°40' W 008°10'1 2.3
2019-Jun-12 19:00N 51°39' W 008°11'2 3.2
2019-Jun-12 18:30N 51°37' W 008°12'1 2.6
2019-Jun-12 18:00N 51°37' W 008°10'4 7.1
2019-Jun-12 17:30N 51°35' W 008°05'1 2.4
2019-Jun-12 17:00N 51°35' W 008°03'2 3.8
2019-Jun-12 16:30N 51°35' W 007°60'2 3.2
2019-Jun-12 16:00N 51°34' W 007°58'1 1.9
2019-Jun-12 15:28N 51°33' W 007°59'3 6.0
2019-Jun-12 15:00N 51°33' W 008°03'3 6.1
2019-Jun-12 14:30N 51°32' W 008°08'3 6.2
2019-Jun-12 14:00N 51°31' W 008°13'1 2.4
2019-Jun-12 13:30N 51°31' W 008°14'4 7.5
2019-Jun-12 13:00N 51°31' W 008°20'4 8.4
2019-Jun-12 12:30N 51°32' W 008°27'5 8.8
2019-Jun-12 11:58N 51°33' W 008°34'2 4.8
2019-Jun-12 11:30N 51°33' W 008°38'3 6.4
2019-Jun-12 10:59N 51°31' W 008°42'28 4.1
2019-Jun-12 04:06N 51°23' W 009°25'0 0.8
2019-Jun-12 03:59N 51°23' W 009°25'2 2.6
2019-Jun-12 03:14N 51°25' W 009°24'2 7.2
2019-Jun-12 03:00N 51°25' W 009°27'4 8.2
2019-Jun-12 02:31N 51°25' W 009°33'9 9.0
2019-Jun-12 01:30N 51°26' W 009°48'4 8.6
2019-Jun-12 01:00N 51°28' W 009°54'5 9.1
2019-Jun-12 00:30N 51°32' W 009°53'5 9.6
2019-Jun-11 23:57N 51°36' W 009°47'4 9.7
2019-Jun-11 23:31N 51°39' W 009°42'1 2.4
2019-Jun-11 23:00N 51°38' W 009°43'3 6.2
2019-Jun-11 22:30N 51°36' W 009°47'1 2.3
2019-Jun-11 22:00N 51°36' W 009°49'4 7.6
2019-Jun-11 21:30N 51°33' W 009°52'3 5.3
2019-Jun-11 21:00N 51°31' W 009°48'2 4.3
2019-Jun-11 20:30N 51°32' W 009°45'1 1.2
2019-Jun-11 20:00N 51°33' W 009°44'4 7.3
2019-Jun-11 19:30N 51°31' W 009°50'3 6.2
2019-Jun-11 19:00N 51°33' W 009°53'2 4.6
2019-Jun-11 18:30N 51°33' W 009°57'3 5.7
2019-Jun-11 17:58N 51°32' W 010°02'2 4.2
2019-Jun-11 17:28N 51°33' W 010°05'4 8.8
2019-Jun-11 17:00N 51°34' W 010°12'8 7.0
2019-Jun-11 15:54N 51°41' W 010°09'1 2.5
2019-Jun-11 15:26N 51°42' W 010°08'1 2.5
2019-Jun-11 14:55N 51°42' W 010°10'2 5.0
2019-Jun-11 14:26N 51°42' W 010°13'8 8.5
2019-Jun-11 13:26N 51°48' W 010°24'82 8.9
2019-Jun-11 04:15N 53°09' W 010°20'5 9.6
2019-Jun-11 03:45N 53°14' W 010°20'3 9.5
2019-Jun-11 03:28N 53°17' W 010°19'3 7.3
2019-Jun-11 03:00N 53°20' W 010°19'2 3.2
2019-Jun-11 02:30N 53°19' W 010°18'1 1.4
2019-Jun-11 01:57N 53°18' W 010°17'1 1.8
2019-Jun-11 01:25N 53°17' W 010°16'2 4.9
2019-Jun-11 01:00N 53°18' W 010°13'1 1.7
2019-Jun-11 00:27N 53°17' W 010°13'1 2.8
2019-Jun-11 00:00N 53°16' W 010°12'5 7.9
2019-Jun-10 23:25N 53°12' W 010°08'4 7.6
2019-Jun-10 22:57N 53°09' W 010°04'1 2.0
2019-Jun-10 22:18N 53°08' W 010°03'3 5.3
2019-Jun-10 21:41N 53°08' W 010°09'0 0.9
2019-Jun-10 21:28N 53°08' W 010°08'3 5.1
2019-Jun-10 20:50N 53°06' W 010°11'2 2.6
2019-Jun-10 20:12N 53°05' W 010°08'2 5.3
2019-Jun-10 19:51N 53°05' W 010°05'6 4.0
2019-Jun-10 18:26N 53°06' W 009°56'2 3.2
2019-Jun-10 17:55N 53°05' W 009°53'3 2.0
2019-Jun-10 16:27N 53°03' W 009°55'2 2.7
2019-Jun-10 15:43N 53°02' W 009°58'6 4.3
2019-Jun-10 14:21N 53°02' W 010°08'3 6.9
2019-Jun-10 13:51N 53°02' W 010°14'9 2.8
2019-Jun-10 10:43N 52°59' W 009°60'10 0.6
2019-Jun-09 19:07N 53°03' W 009°44'  
2019-Jun-07 04:34N 53°13' W 009°08'7 5.9
2019-Jun-07 03:24N 53°09' W 009°18'3 6.4
2019-Jun-07 02:59N 53°07' W 009°21'3 5.6
2019-Jun-07 02:26N 53°05' W 009°24'5 9.4
2019-Jun-07 01:57N 53°01' W 009°28'4 9.3
2019-Jun-07 01:30N 52°58' W 009°32'5 9.5
2019-Jun-07 01:00N 52°54' W 009°37'5 9.3
2019-Jun-07 00:29N 52°50' W 009°42'79 8.4
2019-Jun-06 15:04N 51°34' W 010°18'2 9.8
2019-Jun-06 14:53N 51°33' W 010°15'5 9.6
2019-Jun-06 14:23N 51°30' W 010°09'4 9.5
2019-Jun-06 14:00N 51°28' W 010°04'5 9.5
2019-Jun-06 13:30N 51°26' W 009°58'5 9.8
2019-Jun-06 12:58N 51°22' W 009°52'5 9.9
2019-Jun-06 12:29N 51°19' W 009°45'5 9.9
2019-Jun-06 12:00N 51°17' W 009°39'5 9.7
2019-Jun-06 11:30N 51°14' W 009°32'  
2019-Jun-03 16:56N 51°19' W 008°06'4 8.3
2019-Jun-03 16:30N 51°23' W 008°07'4 7.2
2019-Jun-03 16:00N 51°26' W 008°09'4 7.2
2019-Jun-03 15:30N 51°30' W 008°10'4 7.5
2019-Jun-03 15:00N 51°33' W 008°11'4 7.3
2019-Jun-03 14:30N 51°37' W 008°12'4 7.1
2019-Jun-03 14:00N 51°40' W 008°13'4 7.0
2019-Jun-03 13:30N 51°44' W 008°15'3 6.9
2019-Jun-03 13:00N 51°47' W 008°16'3 6.6
2019-Jun-03 12:30N 51°50' W 008°16'3 5.4
2019-Jun-03 12:00N 51°52' W 008°20'3 6.7
2019-Jun-03 11:30N 51°54' W 008°24'2 4.8
2019-Jun-03 11:00N 51°54' W 008°28'0 0.3
2019-Jun-03 10:28N 51°54' W 008°28'0 0.0
2019-Jun-03 09:58N 51°54' W 008°28'0 0.0
2019-Jun-03 09:28N 51°54' W 008°28'0 0.0
2019-Jun-03 08:58N 51°54' W 008°28'0 0.0
2019-Jun-03 08:28N 51°54' W 008°28'0 0.0
2019-Jun-03 07:58N 51°54' W 008°28'0 0.0
2019-Jun-03 07:25N 51°54' W 008°28'0 0.0
2019-Jun-03 03:13N 51°54' W 008°28'0 0.0
2019-Jun-03 02:31N 51°54' W 008°28'0 0.0
2019-Jun-03 02:25N 51°54' W 008°28'0 0.0
2019-Jun-03 01:58N 51°54' W 008°28'  

Dump ship's entire track history